createdAt,value
2023-01-30T00:06:17.378Z,-3.41
2023-01-30T00:21:18.728Z,-3.56
2023-01-30T00:36:20.176Z,-3.61
2023-01-30T00:51:21.663Z,-3.62
2023-01-30T01:06:23.112Z,-3.81
2023-01-30T01:21:24.484Z,-3.99
2023-01-30T01:36:53.314Z,-3.86
2023-01-30T01:51:50.896Z,-3.33
2023-01-30T02:06:52.302Z,-3.13
2023-01-30T02:21:53.795Z,-3.18
2023-01-30T02:36:55.865Z,-3.12
2023-01-30T02:51:57.231Z,-3.15
2023-01-30T03:06:59.074Z,-2.97
2023-01-30T03:22:00.673Z,-2.91
2023-01-30T03:37:02.460Z,-3.01
2023-01-30T03:52:08.398Z,-2.88
2023-01-30T04:07:09.956Z,-2.84
2023-01-30T04:22:14.786Z,-2.67
2023-01-30T04:37:16.330Z,-2.58
2023-01-30T04:52:19.223Z,-2.63
2023-01-30T05:07:20.852Z,-2.65
2023-01-30T05:22:22.592Z,-2.77
2023-01-30T05:37:24.531Z,-2.76
2023-01-30T05:52:25.912Z,-2.73
2023-01-30T06:07:27.257Z,-2.78
2023-01-30T06:22:28.655Z,-2.69
2023-01-30T06:37:30.025Z,-2.57
2023-01-30T06:52:31.428Z,-2.46
2023-01-30T07:07:32.828Z,-2.50
2023-01-30T07:22:34.209Z,-2.39
2023-01-30T07:37:35.581Z,-2.32
2023-01-30T07:52:36.918Z,-2.05
2023-01-30T08:07:38.270Z,-1.84
2023-01-30T08:22:39.654Z,-1.69
2023-01-30T08:37:41.048Z,-1.21
2023-01-30T08:52:42.437Z,-1.24
2023-01-30T09:07:43.875Z,-1.32
2023-01-30T09:22:45.277Z,-1.34
2023-01-30T09:37:46.652Z,-1.14
2023-01-30T09:52:48.051Z,-1.09
2023-01-30T10:07:49.602Z,-0.97
2023-01-30T10:22:51.196Z,-0.87
2023-01-30T10:37:52.653Z,-0.62
2023-01-30T10:52:54.066Z,-0.52
2023-01-30T11:07:55.615Z,-0.24
2023-01-30T11:22:56.978Z,-0.04
2023-01-30T11:37:58.399Z,0.03
2023-01-30T11:52:59.775Z,0.21
2023-01-30T12:08:01.167Z,0.29
2023-01-30T12:23:02.539Z,0.33
2023-01-30T12:38:03.939Z,0.48
2023-01-30T12:53:05.300Z,0.46
2023-01-30T13:08:06.861Z,0.63
2023-01-30T13:23:08.224Z,0.70
2023-01-30T13:38:10.839Z,0.81
2023-01-30T13:53:12.209Z,0.76
2023-01-30T14:08:15.059Z,0.63
2023-01-30T14:23:16.425Z,0.53
2023-01-30T14:38:17.798Z,0.61
2023-01-30T14:53:19.163Z,0.59
2023-01-30T15:08:20.587Z,0.50
2023-01-30T15:23:21.957Z,0.45
2023-01-30T15:38:25.040Z,0.42
2023-01-30T15:53:26.453Z,0.43
2023-01-30T16:08:27.820Z,0.44
2023-01-30T16:23:29.258Z,0.50
2023-01-30T16:38:30.632Z,0.50
2023-01-30T16:53:32.036Z,0.56
2023-01-30T17:08:46.177Z,0.59
2023-01-30T17:23:47.563Z,0.70
2023-01-30T17:38:48.946Z,0.64
2023-01-30T17:53:50.294Z,0.60
2023-01-30T18:08:51.716Z,0.57
2023-01-30T18:23:53.214Z,0.60
2023-01-30T18:38:54.744Z,0.54
2023-01-30T18:53:56.102Z,0.64
2023-01-30T19:08:57.612Z,0.71
2023-01-30T19:23:59.600Z,0.71
2023-01-30T19:39:01.674Z,0.74
2023-01-30T19:54:04.345Z,0.70
2023-01-30T20:09:05.770Z,0.78
2023-01-30T20:24:07.189Z,0.77
2023-01-30T20:39:08.778Z,0.77
2023-01-30T20:54:10.233Z,0.79
2023-01-30T21:09:11.778Z,0.76
2023-01-30T21:24:13.340Z,0.82
2023-01-30T21:39:33.618Z,0.78
2023-01-30T21:54:35.094Z,0.78
2023-01-30T22:09:36.513Z,0.82
2023-01-30T22:24:38.486Z,0.82
2023-01-30T22:39:40.936Z,0.83
2023-01-30T22:54:42.311Z,0.72
2023-01-30T23:09:43.723Z,0.77
2023-01-30T23:24:45.102Z,0.80
2023-01-30T23:39:46.469Z,0.71
2023-01-30T23:54:48.258Z,0.74
